sensor_id;sensor_type;location;lat;lon;timestamp;temperature;humidity
17687;DHT22;8962;52.538;13.266;2023-01-09T00:02:24;6.30;99.90
17687;DHT22;8962;52.538;13.266;2023-01-09T00:04:52;6.30;99.90
17687;DHT22;8962;52.538;13.266;2023-01-09T00:07:19;6.30;99.90
17687;DHT22;8962;52.538;13.266;2023-01-09T00:09:46;6.20;99.90
17687;DHT22;8962;52.538;13.266;2023-01-09T00:12:13;6.20;99.90
17687;DHT22;8962;52.538;13.266;2023-01-09T00:14:44;6.20;99.90
17687;DHT22;8962;52.538;13.266;2023-01-09T00:17:11;6.20;99.90
17687;DHT22;8962;52.538;13.266;2023-01-09T00:19:38;6.10;99.90
17687;DHT22;8962;52.538;13.266;2023-01-09T00:22:06;6.10;99.90
17687;DHT22;8962;52.538;13.266;2023-01-09T00:24:35;6.10;99.90
17687;DHT22;8962;52.538;13.266;2023-01-09T00:27:03;6.10;99.90
17687;DHT22;8962;52.538;13.266;2023-01-09T00:29:31;6.00;99.90
17687;DHT22;8962;52.538;13.266;2023-01-09T00:32:00;6.00;99.90
17687;DHT22;8962;52.538;13.266;2023-01-09T00:34:27;6.00;99.90
17687;DHT22;8962;52.538;13.266;2023-01-09T00:36:54;5.90;99.90
17687;DHT22;8962;52.538;13.266;2023-01-09T00:39:22;6.00;99.90
17687;DHT22;8962;52.538;13.266;2023-01-09T00:41:52;5.90;99.90
17687;DHT22;8962;52.538;13.266;2023-01-09T00:44:22;5.90;99.90
17687;DHT22;8962;52.538;13.266;2023-01-09T00:46:54;5.90;99.90
17687;DHT22;8962;52.538;13.266;2023-01-09T00:49:24;5.90;99.90
17687;DHT22;8962;52.538;13.266;2023-01-09T00:51:54;5.90;99.90
17687;DHT22;8962;52.538;13.266;2023-01-09T00:54:22;5.90;99.90
17687;DHT22;8962;52.538;13.266;2023-01-09T00:56:50;5.90;99.90
17687;DHT22;8962;52.538;13.266;2023-01-09T00:59:17;5.80;99.90
17687;DHT22;8962;52.538;13.266;2023-01-09T01:01:44;5.80;99.90
17687;DHT22;8962;52.538;13.266;2023-01-09T01:04:12;5.80;99.90
17687;DHT22;8962;52.538;13.266;2023-01-09T01:06:58;5.80;99.90
17687;DHT22;8962;52.538;13.266;2023-01-09T01:09:55;5.80;99.90
17687;DHT22;8962;52.538;13.266;2023-01-09T01:12:22;5.80;99.90
17687;DHT22;8962;52.538;13.266;2023-01-09T01:14:51;5.80;99.90
17687;DHT22;8962;52.538;13.266;2023-01-09T01:17:19;5.80;99.90
17687;DHT22;8962;52.538;13.266;2023-01-09T01:19:50;5.80;99.90
17687;DHT22;8962;52.538;13.266;2023-01-09T01:22:18;5.70;99.90
17687;DHT22;8962;52.538;13.266;2023-01-09T01:24:46;5.70;99.90
17687;DHT22;8962;52.538;13.266;2023-01-09T01:27:14;5.70;99.90
17687;DHT22;8962;52.538;13.266;2023-01-09T01:29:43;5.70;99.90
17687;DHT22;8962;52.538;13.266;2023-01-09T01:32:10;5.70;99.90
17687;DHT22;8962;52.538;13.266;2023-01-09T01:34:37;5.70;99.90
17687;DHT22;8962;52.538;13.266;2023-01-09T01:37:04;5.60;99.90
17687;DHT22;8962;52.538;13.266;2023-01-09T01:39:33;5.60;99.90
17687;DHT22;8962;52.538;13.266;2023-01-09T01:42:02;5.70;99.90
17687;DHT22;8962;52.538;13.266;2023-01-09T01:44:59;5.70;99.90
17687;DHT22;8962;52.538;13.266;2023-01-09T01:47:32;5.60;99.90
17687;DHT22;8962;52.538;13.266;2023-01-09T01:50:04;5.70;99.90
17687;DHT22;8962;52.538;13.266;2023-01-09T01:52:33;5.70;99.90
17687;DHT22;8962;52.538;13.266;2023-01-09T01:55:07;5.70;99.90
17687;DHT22;8962;52.538;13.266;2023-01-09T01:57:36;5.70;99.90
17687;DHT22;8962;52.538;13.266;2023-01-09T02:00:12;5.60;99.90
17687;DHT22;8962;52.538;13.266;2023-01-09T02:02:39;5.70;99.90
17687;DHT22;8962;52.538;13.266;2023-01-09T02:05:08;5.70;99.90
17687;DHT22;8962;52.538;13.266;2023-01-09T02:07:35;5.70;99.90
17687;DHT22;8962;52.538;13.266;2023-01-09T02:10:04;5.60;99.90
17687;DHT22;8962;52.538;13.266;2023-01-09T02:12:33;5.70;99.90
17687;DHT22;8962;52.538;13.266;2023-01-09T02:15:03;5.60;99.90
17687;DHT22;8962;52.538;13.266;2023-01-09T02:17:46;5.60;99.90
17687;DHT22;8962;52.538;13.266;2023-01-09T02:20:38;5.70;99.90
17687;DHT22;8962;52.538;13.266;2023-01-09T02:23:59;5.60;99.90
17687;DHT22;8962;52.538;13.266;2023-01-09T02:32:51;5.60;99.90
17687;DHT22;8962;52.538;13.266;2023-01-09T02:35:31;5.60;99.90
17687;DHT22;8962;52.538;13.266;2023-01-09T02:38:09;5.60;99.90
17687;DHT22;8962;52.538;13.266;2023-01-09T02:40:45;5.60;99.90
17687;DHT22;8962;52.538;13.266;2023-01-09T02:43:17;5.60;99.90
17687;DHT22;8962;52.538;13.266;2023-01-09T02:45:45;5.60;99.90
17687;DHT22;8962;52.538;13.266;2023-01-09T02:48:15;5.50;99.90
17687;DHT22;8962;52.538;13.266;2023-01-09T02:50:48;5.50;99.90
17687;DHT22;8962;52.538;13.266;2023-01-09T02:53:43;5.50;99.90
17687;DHT22;8962;52.538;13.266;2023-01-09T02:56:27;5.50;99.90
17687;DHT22;8962;52.538;13.266;2023-01-09T02:59:16;5.40;99.90
17687;DHT22;8962;52.538;13.266;2023-01-09T03:01:55;5.40;99.90
17687;DHT22;8962;52.538;13.266;2023-01-09T03:04:40;5.40;99.90
17687;DHT22;8962;52.538;13.266;2023-01-09T03:07:13;5.40;99.90
17687;DHT22;8962;52.538;13.266;2023-01-09T03:09:46;5.40;99.90
17687;DHT22;8962;52.538;13.266;2023-01-09T03:12:18;5.40;99.90
17687;DHT22;8962;52.538;13.266;2023-01-09T03:14:50;5.40;99.90
17687;DHT22;8962;52.538;13.266;2023-01-09T03:17:23;5.40;99.90
17687;DHT22;8962;52.538;13.266;2023-01-09T03:20:02;5.40;99.90
17687;DHT22;8962;52.538;13.266;2023-01-09T03:22:31;5.40;99.90
17687;DHT22;8962;52.538;13.266;2023-01-09T03:24:58;5.40;99.90
17687;DHT22;8962;52.538;13.266;2023-01-09T03:27:26;5.50;99.90
17687;DHT22;8962;52.538;13.266;2023-01-09T03:29:53;5.50;99.90
17687;DHT22;8962;52.538;13.266;2023-01-09T03:32:22;5.50;99.90
17687;DHT22;8962;52.538;13.266;2023-01-09T03:34:54;5.60;99.90
17687;DHT22;8962;52.538;13.266;2023-01-09T03:37:22;5.70;99.90
17687;DHT22;8962;52.538;13.266;2023-01-09T03:39:50;5.70;99.90
17687;DHT22;8962;52.538;13.266;2023-01-09T03:42:17;5.80;99.90
17687;DHT22;8962;52.538;13.266;2023-01-09T03:44:44;5.80;99.90
17687;DHT22;8962;52.538;13.266;2023-01-09T03:47:11;5.90;99.90
17687;DHT22;8962;52.538;13.266;2023-01-09T03:49:41;5.90;99.90
17687;DHT22;8962;52.538;13.266;2023-01-09T03:52:09;6.00;99.90
17687;DHT22;8962;52.538;13.266;2023-01-09T03:54:38;6.10;99.90
17687;DHT22;8962;52.538;13.266;2023-01-09T03:57:06;6.00;99.90
17687;DHT22;8962;52.538;13.266;2023-01-09T03:59:34;6.10;99.90
17687;DHT22;8962;52.538;13.266;2023-01-09T04:02:01;6.10;99.90
17687;DHT22;8962;52.538;13.266;2023-01-09T04:04:28;6.10;99.90
17687;DHT22;8962;52.538;13.266;2023-01-09T04:06:57;6.10;99.90
17687;DHT22;8962;52.538;13.266;2023-01-09T04:09:27;6.10;99.90
17687;DHT22;8962;52.538;13.266;2023-01-09T04:11:54;6.10;99.90
17687;DHT22;8962;52.538;13.266;2023-01-09T04:14:21;6.10;99.90
17687;DHT22;8962;52.538;13.266;2023-01-09T04:16:48;6.20;99.90
17687;DHT22;8962;52.538;13.266;2023-01-09T04:19:16;6.20;99.90
17687;DHT22;8962;52.538;13.266;2023-01-09T04:21:43;6.20;99.90
17687;DHT22;8962;52.538;13.266;2023-01-09T04:24:10;6.20;99.90
17687;DHT22;8962;52.538;13.266;2023-01-09T04:26:40;6.20;99.90
17687;DHT22;8962;52.538;13.266;2023-01-09T04:29:07;6.30;99.90
17687;DHT22;8962;52.538;13.266;2023-01-09T04:31:35;6.20;99.90
17687;DHT22;8962;52.538;13.266;2023-01-09T04:34:02;6.20;99.90
17687;DHT22;8962;52.538;13.266;2023-01-09T04:36:30;6.30;99.90
17687;DHT22;8962;52.538;13.266;2023-01-09T04:38:59;6.30;99.90
17687;DHT22;8962;52.538;13.266;2023-01-09T04:41:26;6.30;99.90
17687;DHT22;8962;52.538;13.266;2023-01-09T04:44:12;6.30;99.90
17687;DHT22;8962;52.538;13.266;2023-01-09T04:46:39;6.30;99.90
17687;DHT22;8962;52.538;13.266;2023-01-09T04:49:06;6.30;99.90
17687;DHT22;8962;52.538;13.266;2023-01-09T04:51:35;6.30;99.90
17687;DHT22;8962;52.538;13.266;2023-01-09T04:54:03;6.30;99.90
17687;DHT22;8962;52.538;13.266;2023-01-09T04:56:30;6.30;99.90
17687;DHT22;8962;52.538;13.266;2023-01-09T04:58:58;6.30;99.90
17687;DHT22;8962;52.538;13.266;2023-01-09T05:01:28;6.30;99.90
17687;DHT22;8962;52.538;13.266;2023-01-09T05:03:55;6.30;99.90
17687;DHT22;8962;52.538;13.266;2023-01-09T05:06:24;6.30;99.90
17687;DHT22;8962;52.538;13.266;2023-01-09T05:08:53;6.30;99.90
17687;DHT22;8962;52.538;13.266;2023-01-09T05:11:21;6.30;99.90
17687;DHT22;8962;52.538;13.266;2023-01-09T05:13:50;6.30;99.90
17687;DHT22;8962;52.538;13.266;2023-01-09T05:16:18;6.40;99.90
17687;DHT22;8962;52.538;13.266;2023-01-09T05:18:47;6.40;99.90
17687;DHT22;8962;52.538;13.266;2023-01-09T05:21:16;6.40;99.90
17687;DHT22;8962;52.538;13.266;2023-01-09T05:23:43;6.40;99.90
17687;DHT22;8962;52.538;13.266;2023-01-09T05:26:10;6.40;99.90
17687;DHT22;8962;52.538;13.266;2023-01-09T05:28:38;6.40;99.90
17687;DHT22;8962;52.538;13.266;2023-01-09T05:31:05;6.40;99.90
17687;DHT22;8962;52.538;13.266;2023-01-09T05:33:32;6.50;99.90
17687;DHT22;8962;52.538;13.266;2023-01-09T05:36:01;6.50;99.90
17687;DHT22;8962;52.538;13.266;2023-01-09T05:38:28;6.50;99.90
17687;DHT22;8962;52.538;13.266;2023-01-09T05:40:55;6.50;99.90
17687;DHT22;8962;52.538;13.266;2023-01-09T05:43:23;6.50;99.90
17687;DHT22;8962;52.538;13.266;2023-01-09T05:45:51;6.50;99.90
17687;DHT22;8962;52.538;13.266;2023-01-09T05:48:18;6.40;99.90
17687;DHT22;8962;52.538;13.266;2023-01-09T05:50:45;6.40;99.90
17687;DHT22;8962;52.538;13.266;2023-01-09T05:53:14;6.40;99.90
17687;DHT22;8962;52.538;13.266;2023-01-09T05:55:41;6.40;99.90
17687;DHT22;8962;52.538;13.266;2023-01-09T05:58:11;6.40;99.90
17687;DHT22;8962;52.538;13.266;2023-01-09T06:00:38;6.50;99.90
17687;DHT22;8962;52.538;13.266;2023-01-09T06:03:05;6.50;99.90
17687;DHT22;8962;52.538;13.266;2023-01-09T06:05:33;6.50;99.90
17687;DHT22;8962;52.538;13.266;2023-01-09T06:08:00;6.50;99.90
17687;DHT22;8962;52.538;13.266;2023-01-09T06:10:29;6.50;99.90
17687;DHT22;8962;52.538;13.266;2023-01-09T06:12:58;6.50;99.90
17687;DHT22;8962;52.538;13.266;2023-01-09T06:15:25;6.40;99.90
17687;DHT22;8962;52.538;13.266;2023-01-09T06:17:53;6.50;99.90
17687;DHT22;8962;52.538;13.266;2023-01-09T06:20:20;6.40;99.90
17687;DHT22;8962;52.538;13.266;2023-01-09T06:22:48;6.40;99.90
17687;DHT22;8962;52.538;13.266;2023-01-09T06:25:17;6.40;99.90
17687;DHT22;8962;52.538;13.266;2023-01-09T06:27:49;6.50;99.90
17687;DHT22;8962;52.538;13.266;2023-01-09T06:30:17;6.50;99.90
17687;DHT22;8962;52.538;13.266;2023-01-09T06:32:47;6.50;99.90
17687;DHT22;8962;52.538;13.266;2023-01-09T06:35:16;6.50;99.90
17687;DHT22;8962;52.538;13.266;2023-01-09T06:37:45;6.50;99.90
17687;DHT22;8962;52.538;13.266;2023-01-09T06:40:16;6.50;99.90
17687;DHT22;8962;52.538;13.266;2023-01-09T06:42:48;6.50;99.90
17687;DHT22;8962;52.538;13.266;2023-01-09T06:45:16;6.60;99.90
17687;DHT22;8962;52.538;13.266;2023-01-09T06:47:43;6.60;99.90
17687;DHT22;8962;52.538;13.266;2023-01-09T06:50:11;6.60;99.90
17687;DHT22;8962;52.538;13.266;2023-01-09T06:52:38;6.50;99.90
17687;DHT22;8962;52.538;13.266;2023-01-09T06:55:07;6.60;99.90
17687;DHT22;8962;52.538;13.266;2023-01-09T06:57:36;6.50;99.90
17687;DHT22;8962;52.538;13.266;2023-01-09T07:00:09;6.50;99.90
17687;DHT22;8962;52.538;13.266;2023-01-09T07:02:37;6.50;99.90
17687;DHT22;8962;52.538;13.266;2023-01-09T07:05:13;6.50;99.90
17687;DHT22;8962;52.538;13.266;2023-01-09T07:07:41;6.50;99.90
17687;DHT22;8962;52.538;13.266;2023-01-09T07:10:11;6.50;99.90
17687;DHT22;8962;52.538;13.266;2023-01-09T07:12:40;6.50;99.90
17687;DHT22;8962;52.538;13.266;2023-01-09T07:15:10;6.50;99.90
17687;DHT22;8962;52.538;13.266;2023-01-09T07:17:38;6.50;99.90
17687;DHT22;8962;52.538;13.266;2023-01-09T07:20:06;6.60;99.90
17687;DHT22;8962;52.538;13.266;2023-01-09T07:22:34;6.50;99.90
17687;DHT22;8962;52.538;13.266;2023-01-09T07:25:02;6.50;99.90
17687;DHT22;8962;52.538;13.266;2023-01-09T07:27:29;6.50;99.90
17687;DHT22;8962;52.538;13.266;2023-01-09T07:29:57;6.60;99.90
17687;DHT22;8962;52.538;13.266;2023-01-09T07:32:25;6.60;99.90
17687;DHT22;8962;52.538;13.266;2023-01-09T07:34:53;6.60;99.90
17687;DHT22;8962;52.538;13.266;2023-01-09T07:37:20;6.60;99.90
17687;DHT22;8962;52.538;13.266;2023-01-09T07:39:48;6.60;99.90
17687;DHT22;8962;52.538;13.266;2023-01-09T07:42:16;6.60;99.90
17687;DHT22;8962;52.538;13.266;2023-01-09T07:44:44;6.60;99.90
17687;DHT22;8962;52.538;13.266;2023-01-09T07:47:11;6.60;99.90
17687;DHT22;8962;52.538;13.266;2023-01-09T07:49:42;6.70;99.90
17687;DHT22;8962;52.538;13.266;2023-01-09T07:52:09;6.60;99.90
17687;DHT22;8962;52.538;13.266;2023-01-09T07:54:37;6.60;99.90
17687;DHT22;8962;52.538;13.266;2023-01-09T07:57:06;6.70;99.90
17687;DHT22;8962;52.538;13.266;2023-01-09T07:59:33;6.70;99.90
17687;DHT22;8962;52.538;13.266;2023-01-09T08:02:01;6.70;99.90
17687;DHT22;8962;52.538;13.266;2023-01-09T08:04:30;6.70;99.90
17687;DHT22;8962;52.538;13.266;2023-01-09T08:07:00;6.70;99.90
17687;DHT22;8962;52.538;13.266;2023-01-09T08:09:28;6.70;99.90
17687;DHT22;8962;52.538;13.266;2023-01-09T08:11:57;6.70;99.90
17687;DHT22;8962;52.538;13.266;2023-01-09T08:14:28;6.70;99.90
17687;DHT22;8962;52.538;13.266;2023-01-09T08:16:55;6.70;99.90
17687;DHT22;8962;52.538;13.266;2023-01-09T08:19:23;6.80;99.90
17687;DHT22;8962;52.538;13.266;2023-01-09T08:21:50;6.80;99.90
17687;DHT22;8962;52.538;13.266;2023-01-09T08:24:19;6.80;99.90
17687;DHT22;8962;52.538;13.266;2023-01-09T08:26:47;6.90;99.90
17687;DHT22;8962;52.538;13.266;2023-01-09T08:29:14;6.90;99.90
17687;DHT22;8962;52.538;13.266;2023-01-09T08:31:41;6.90;99.90
17687;DHT22;8962;52.538;13.266;2023-01-09T08:34:11;6.90;99.90
17687;DHT22;8962;52.538;13.266;2023-01-09T08:36:38;6.90;99.90
17687;DHT22;8962;52.538;13.266;2023-01-09T08:39:05;6.90;99.90
17687;DHT22;8962;52.538;13.266;2023-01-09T08:41:35;7.00;99.90
17687;DHT22;8962;52.538;13.266;2023-01-09T08:44:20;7.00;99.90
17687;DHT22;8962;52.538;13.266;2023-01-09T08:47:04;7.10;99.90
17687;DHT22;8962;52.538;13.266;2023-01-09T08:49:32;7.10;99.90
17687;DHT22;8962;52.538;13.266;2023-01-09T08:51:59;7.10;99.90
17687;DHT22;8962;52.538;13.266;2023-01-09T08:54:27;7.10;99.90
17687;DHT22;8962;52.538;13.266;2023-01-09T08:56:57;7.10;99.90
17687;DHT22;8962;52.538;13.266;2023-01-09T08:59:24;7.10;99.90
17687;DHT22;8962;52.538;13.266;2023-01-09T09:01:51;7.00;99.90
17687;DHT22;8962;52.538;13.266;2023-01-09T09:04:21;7.10;99.90
17687;DHT22;8962;52.538;13.266;2023-01-09T09:06:48;7.10;99.90
17687;DHT22;8962;52.538;13.266;2023-01-09T09:09:15;7.10;99.90
17687;DHT22;8962;52.538;13.266;2023-01-09T09:11:43;7.20;99.90
17687;DHT22;8962;52.538;13.266;2023-01-09T09:14:12;7.10;99.90
17687;DHT22;8962;52.538;13.266;2023-01-09T09:16:57;7.10;99.90
17687;DHT22;8962;52.538;13.266;2023-01-09T09:19:25;7.10;99.90
17687;DHT22;8962;52.538;13.266;2023-01-09T09:21:52;7.20;99.90
17687;DHT22;8962;52.538;13.266;2023-01-09T09:24:19;7.20;99.90
17687;DHT22;8962;52.538;13.266;2023-01-09T09:26:47;7.30;99.90
17687;DHT22;8962;52.538;13.266;2023-01-09T09:29:16;7.40;99.90
17687;DHT22;8962;52.538;13.266;2023-01-09T09:31:44;7.40;99.90
17687;DHT22;8962;52.538;13.266;2023-01-09T09:34:12;7.50;99.90
17687;DHT22;8962;52.538;13.266;2023-01-09T09:36:39;7.50;99.90
17687;DHT22;8962;52.538;13.266;2023-01-09T09:39:08;7.50;99.90
17687;DHT22;8962;52.538;13.266;2023-01-09T09:42:00;7.60;99.90
17687;DHT22;8962;52.538;13.266;2023-01-09T09:45:09;7.60;99.90
17687;DHT22;8962;52.538;13.266;2023-01-09T09:47:47;7.70;99.90
17687;DHT22;8962;52.538;13.266;2023-01-09T09:50:25;7.70;99.90
17687;DHT22;8962;52.538;13.266;2023-01-09T09:52:58;7.80;99.90
17687;DHT22;8962;52.538;13.266;2023-01-09T09:55:30;7.90;99.90
17687;DHT22;8962;52.538;13.266;2023-01-09T09:58:01;7.90;99.90
17687;DHT22;8962;52.538;13.266;2023-01-09T10:00:35;7.90;99.90
17687;DHT22;8962;52.538;13.266;2023-01-09T10:03:04;7.90;99.90
17687;DHT22;8962;52.538;13.266;2023-01-09T10:05:35;8.00;99.90
17687;DHT22;8962;52.538;13.266;2023-01-09T10:08:12;8.10;99.90
17687;DHT22;8962;52.538;13.266;2023-01-09T10:10:46;8.10;99.90
17687;DHT22;8962;52.538;13.266;2023-01-09T10:13:18;8.20;99.90
17687;DHT22;8962;52.538;13.266;2023-01-09T10:16:10;8.30;99.90
17687;DHT22;8962;52.538;13.266;2023-01-09T10:18:46;8.30;99.90
17687;DHT22;8962;52.538;13.266;2023-01-09T10:21:19;8.40;99.90
17687;DHT22;8962;52.538;13.266;2023-01-09T10:24:09;8.40;99.90
17687;DHT22;8962;52.538;13.266;2023-01-09T10:26:45;8.40;99.90
17687;DHT22;8962;52.538;13.266;2023-01-09T10:29:27;8.40;99.90
17687;DHT22;8962;52.538;13.266;2023-01-09T10:32:16;8.50;99.90
17687;DHT22;8962;52.538;13.266;2023-01-09T10:34:56;8.60;99.90
17687;DHT22;8962;52.538;13.266;2023-01-09T10:37:29;8.60;99.90
17687;DHT22;8962;52.538;13.266;2023-01-09T10:40:01;8.50;99.90
17687;DHT22;8962;52.538;13.266;2023-01-09T10:42:34;8.70;99.90
17687;DHT22;8962;52.538;13.266;2023-01-09T10:45:06;8.70;99.90
17687;DHT22;8962;52.538;13.266;2023-01-09T10:47:47;8.80;99.90
17687;DHT22;8962;52.538;13.266;2023-01-09T10:50:23;8.80;99.90
17687;DHT22;8962;52.538;13.266;2023-01-09T10:52:54;8.80;99.90
17687;DHT22;8962;52.538;13.266;2023-01-09T10:55:29;8.70;99.90
17687;DHT22;8962;52.538;13.266;2023-01-09T10:58:09;8.70;99.90
17687;DHT22;8962;52.538;13.266;2023-01-09T11:04:22;8.70;99.90
17687;DHT22;8962;52.538;13.266;2023-01-09T11:06:55;8.80;99.90
17687;DHT22;8962;52.538;13.266;2023-01-09T11:09:25;8.80;99.90
17687;DHT22;8962;52.538;13.266;2023-01-09T11:11:52;8.70;99.90
17687;DHT22;8962;52.538;13.266;2023-01-09T11:14:24;8.70;99.90
17687;DHT22;8962;52.538;13.266;2023-01-09T11:16:58;8.60;99.90
17687;DHT22;8962;52.538;13.266;2023-01-09T11:19:29;8.60;99.90
17687;DHT22;8962;52.538;13.266;2023-01-09T11:22:05;8.60;99.90
17687;DHT22;8962;52.538;13.266;2023-01-09T11:24:34;8.60;99.90
17687;DHT22;8962;52.538;13.266;2023-01-09T11:27:18;8.60;99.90
17687;DHT22;8962;52.538;13.266;2023-01-09T11:30:12;8.60;99.90
17687;DHT22;8962;52.538;13.266;2023-01-09T11:32:44;8.70;99.90
17687;DHT22;8962;52.538;13.266;2023-01-09T11:35:26;8.80;99.90
17687;DHT22;8962;52.538;13.266;2023-01-09T11:38:05;8.80;99.90
17687;DHT22;8962;52.538;13.266;2023-01-09T11:40:44;8.70;99.90
17687;DHT22;8962;52.538;13.266;2023-01-09T11:43:16;8.70;99.90
17687;DHT22;8962;52.538;13.266;2023-01-09T11:45:51;8.80;99.90
17687;DHT22;8962;52.538;13.266;2023-01-09T11:48:39;8.80;99.90
17687;DHT22;8962;52.538;13.266;2023-01-09T11:51:19;8.80;99.90
17687;DHT22;8962;52.538;13.266;2023-01-09T11:54:13;8.80;99.90
17687;DHT22;8962;52.538;13.266;2023-01-09T11:56:42;8.80;99.90
17687;DHT22;8962;52.538;13.266;2023-01-09T11:59:14;8.80;99.90
17687;DHT22;8962;52.538;13.266;2023-01-09T12:02:03;8.90;99.90
17687;DHT22;8962;52.538;13.266;2023-01-09T12:04:45;9.00;99.90
17687;DHT22;8962;52.538;13.266;2023-01-09T12:10:40;9.20;99.90
17687;DHT22;8962;52.538;13.266;2023-01-09T12:13:21;9.40;99.90
17687;DHT22;8962;52.538;13.266;2023-01-09T12:15:58;9.40;99.90
17687;DHT22;8962;52.538;13.266;2023-01-09T12:18:35;9.30;99.90
17687;DHT22;8962;52.538;13.266;2023-01-09T12:21:21;9.40;99.90
17687;DHT22;8962;52.538;13.266;2023-01-09T12:24:34;9.50;99.90
17687;DHT22;8962;52.538;13.266;2023-01-09T12:27:24;9.40;99.90
17687;DHT22;8962;52.538;13.266;2023-01-09T12:30:18;9.40;99.90
17687;DHT22;8962;52.538;13.266;2023-01-09T12:32:56;9.40;99.90
17687;DHT22;8962;52.538;13.266;2023-01-09T12:35:32;9.30;99.90
17687;DHT22;8962;52.538;13.266;2023-01-09T12:47:41;9.00;99.90
17687;DHT22;8962;52.538;13.266;2023-01-09T12:50:32;8.90;99.90
17687;DHT22;8962;52.538;13.266;2023-01-09T12:53:08;9.00;99.90
17687;DHT22;8962;52.538;13.266;2023-01-09T12:55:41;8.90;99.90
17687;DHT22;8962;52.538;13.266;2023-01-09T12:58:22;8.90;99.90
17687;DHT22;8962;52.538;13.266;2023-01-09T13:01:20;9.10;99.90
17687;DHT22;8962;52.538;13.266;2023-01-09T13:04:00;9.20;99.90
17687;DHT22;8962;52.538;13.266;2023-01-09T13:06:30;9.20;99.90
17687;DHT22;8962;52.538;13.266;2023-01-09T13:09:10;9.10;99.90
17687;DHT22;8962;52.538;13.266;2023-01-09T13:11:43;8.90;99.90
17687;DHT22;8962;52.538;13.266;2023-01-09T13:14:18;8.80;99.90
17687;DHT22;8962;52.538;13.266;2023-01-09T13:16:51;8.80;99.90
17687;DHT22;8962;52.538;13.266;2023-01-09T13:19:32;8.80;99.90
17687;DHT22;8962;52.538;13.266;2023-01-09T13:22:04;9.00;99.90
17687;DHT22;8962;52.538;13.266;2023-01-09T13:24:35;9.00;99.90
17687;DHT22;8962;52.538;13.266;2023-01-09T13:27:14;9.10;99.90
17687;DHT22;8962;52.538;13.266;2023-01-09T13:29:46;9.20;99.90
17687;DHT22;8962;52.538;13.266;2023-01-09T13:32:33;9.20;99.90
17687;DHT22;8962;52.538;13.266;2023-01-09T13:35:12;9.10;99.90
17687;DHT22;8962;52.538;13.266;2023-01-09T13:37:42;8.90;99.90
17687;DHT22;8962;52.538;13.266;2023-01-09T13:40:25;8.90;99.90
17687;DHT22;8962;52.538;13.266;2023-01-09T13:42:59;8.90;99.90
17687;DHT22;8962;52.538;13.266;2023-01-09T13:45:29;9.00;99.90
17687;DHT22;8962;52.538;13.266;2023-01-09T13:48:28;8.90;99.90
17687;DHT22;8962;52.538;13.266;2023-01-09T13:51:36;8.90;99.90
17687;DHT22;8962;52.538;13.266;2023-01-09T13:57:27;8.90;99.90
17687;DHT22;8962;52.538;13.266;2023-01-09T13:59:58;8.90;99.90
17687;DHT22;8962;52.538;13.266;2023-01-09T14:02:55;8.90;99.90
17687;DHT22;8962;52.538;13.266;2023-01-09T14:08:30;8.90;99.90
17687;DHT22;8962;52.538;13.266;2023-01-09T14:11:00;8.90;99.90
17687;DHT22;8962;52.538;13.266;2023-01-09T14:13:29;9.00;99.90
17687;DHT22;8962;52.538;13.266;2023-01-09T14:16:03;9.00;99.90
17687;DHT22;8962;52.538;13.266;2023-01-09T14:18:33;9.00;99.90
17687;DHT22;8962;52.538;13.266;2023-01-09T14:21:03;9.00;99.90
17687;DHT22;8962;52.538;13.266;2023-01-09T14:23:48;8.90;99.90
17687;DHT22;8962;52.538;13.266;2023-01-09T14:26:18;8.90;99.90
17687;DHT22;8962;52.538;13.266;2023-01-09T14:28:47;8.90;99.90
17687;DHT22;8962;52.538;13.266;2023-01-09T14:31:28;8.90;99.90
17687;DHT22;8962;52.538;13.266;2023-01-09T14:34:16;8.90;99.90
17687;DHT22;8962;52.538;13.266;2023-01-09T14:36:47;8.90;99.90
17687;DHT22;8962;52.538;13.266;2023-01-09T14:39:17;8.90;99.90
17687;DHT22;8962;52.538;13.266;2023-01-09T14:41:50;8.90;99.90
17687;DHT22;8962;52.538;13.266;2023-01-09T14:44:33;9.00;99.90
17687;DHT22;8962;52.538;13.266;2023-01-09T14:47:14;9.00;99.90
17687;DHT22;8962;52.538;13.266;2023-01-09T14:49:47;9.00;99.90
17687;DHT22;8962;52.538;13.266;2023-01-09T14:52:21;8.90;99.90
17687;DHT22;8962;52.538;13.266;2023-01-09T14:54:53;8.80;99.90
17687;DHT22;8962;52.538;13.266;2023-01-09T14:57:25;8.70;99.90
17687;DHT22;8962;52.538;13.266;2023-01-09T14:59:57;8.70;99.90
17687;DHT22;8962;52.538;13.266;2023-01-09T15:02:27;8.70;99.90
17687;DHT22;8962;52.538;13.266;2023-01-09T15:04:58;8.70;99.90
17687;DHT22;8962;52.538;13.266;2023-01-09T15:07:28;8.60;99.90
17687;DHT22;8962;52.538;13.266;2023-01-09T15:10:06;8.60;99.90
17687;DHT22;8962;52.538;13.266;2023-01-09T15:12:34;8.50;99.90
17687;DHT22;8962;52.538;13.266;2023-01-09T15:15:02;8.50;99.90
17687;DHT22;8962;52.538;13.266;2023-01-09T15:17:33;8.50;99.90
17687;DHT22;8962;52.538;13.266;2023-01-09T15:20:05;8.50;99.90
17687;DHT22;8962;52.538;13.266;2023-01-09T15:22:34;8.50;99.90
17687;DHT22;8962;52.538;13.266;2023-01-09T15:25:16;8.50;99.90
17687;DHT22;8962;52.538;13.266;2023-01-09T15:27:48;8.50;99.90
17687;DHT22;8962;52.538;13.266;2023-01-09T15:30:19;8.50;99.90
17687;DHT22;8962;52.538;13.266;2023-01-09T15:32:47;8.60;99.90
17687;DHT22;8962;52.538;13.266;2023-01-09T15:35:16;8.50;99.90
17687;DHT22;8962;52.538;13.266;2023-01-09T15:37:43;8.60;99.90
17687;DHT22;8962;52.538;13.266;2023-01-09T15:40:18;8.50;99.90
17687;DHT22;8962;52.538;13.266;2023-01-09T15:42:51;8.50;99.90
17687;DHT22;8962;52.538;13.266;2023-01-09T15:45:24;8.50;99.90
17687;DHT22;8962;52.538;13.266;2023-01-09T15:47:52;8.50;99.90
17687;DHT22;8962;52.538;13.266;2023-01-09T15:50:25;8.40;99.90
17687;DHT22;8962;52.538;13.266;2023-01-09T15:52:54;8.50;99.90
17687;DHT22;8962;52.538;13.266;2023-01-09T15:55:31;8.60;99.90
17687;DHT22;8962;52.538;13.266;2023-01-09T15:58:03;8.50;99.90
17687;DHT22;8962;52.538;13.266;2023-01-09T16:00:54;8.50;99.90
17687;DHT22;8962;52.538;13.266;2023-01-09T16:03:22;8.50;99.90
17687;DHT22;8962;52.538;13.266;2023-01-09T16:05:53;8.50;99.90
17687;DHT22;8962;52.538;13.266;2023-01-09T16:08:28;8.50;99.90
17687;DHT22;8962;52.538;13.266;2023-01-09T16:11:01;8.40;99.90
17687;DHT22;8962;52.538;13.266;2023-01-09T16:13:32;8.30;99.90
17687;DHT22;8962;52.538;13.266;2023-01-09T16:16:00;8.20;99.90
17687;DHT22;8962;52.538;13.266;2023-01-09T16:18:30;8.20;99.90
17687;DHT22;8962;52.538;13.266;2023-01-09T16:21:03;8.00;99.90
17687;DHT22;8962;52.538;13.266;2023-01-09T16:23:32;8.00;99.90
17687;DHT22;8962;52.538;13.266;2023-01-09T16:26:05;7.90;99.90
17687;DHT22;8962;52.538;13.266;2023-01-09T16:28:36;7.90;99.90
17687;DHT22;8962;52.538;13.266;2023-01-09T16:31:14;7.90;99.90
17687;DHT22;8962;52.538;13.266;2023-01-09T16:33:45;7.90;99.90
17687;DHT22;8962;52.538;13.266;2023-01-09T16:36:14;7.70;99.90
17687;DHT22;8962;52.538;13.266;2023-01-09T16:38:41;7.80;99.90
17687;DHT22;8962;52.538;13.266;2023-01-09T16:41:15;7.70;99.90
17687;DHT22;8962;52.538;13.266;2023-01-09T16:44:00;7.70;99.90
17687;DHT22;8962;52.538;13.266;2023-01-09T16:46:33;7.60;99.90
17687;DHT22;8962;52.538;13.266;2023-01-09T16:49:03;7.60;99.90